createdAt,value
2018-04-30T00:01:57.195Z,15.60
2018-04-30T00:04:24.608Z,15.50
2018-04-30T00:06:52.791Z,15.40
2018-04-30T00:09:20.187Z,15.40
2018-04-30T00:11:47.599Z,15.30
2018-04-30T00:14:14.994Z,15.30
2018-04-30T00:16:42.413Z,15.20
2018-04-30T00:19:09.825Z,15.10
2018-04-30T00:21:37.227Z,15.10
2018-04-30T00:24:04.639Z,15.10
2018-04-30T00:26:32.807Z,15.00
2018-04-30T00:29:00.216Z,15.00
2018-04-30T00:31:27.615Z,15.00
2018-04-30T00:33:55.024Z,14.90
2018-04-30T00:36:23.211Z,14.90
2018-04-30T00:38:50.663Z,14.90
2018-04-30T00:41:18.066Z,14.90
2018-04-30T00:43:46.276Z,14.80
2018-04-30T00:46:13.659Z,14.80
2018-04-30T00:48:41.076Z,14.80
2018-04-30T00:51:08.471Z,14.80
2018-04-30T00:53:35.878Z,14.70
2018-04-30T00:56:03.297Z,14.80
2018-04-30T00:58:30.707Z,14.80
2018-04-30T01:00:58.106Z,14.70
2018-04-30T01:03:26.284Z,14.70
2018-04-30T01:05:54.446Z,14.70
2018-04-30T01:08:21.859Z,14.70
2018-04-30T01:10:49.267Z,14.80
2018-04-30T01:13:16.676Z,14.80
2018-04-30T01:15:44.078Z,14.70
2018-04-30T01:18:11.478Z,14.70
2018-04-30T01:20:38.882Z,14.70
2018-04-30T01:23:07.054Z,14.80
2018-04-30T01:25:34.471Z,14.80
2018-04-30T01:28:01.880Z,14.80
2018-04-30T01:30:29.279Z,14.80
2018-04-30T01:32:56.690Z,14.80
2018-04-30T01:35:24.154Z,14.80
2018-04-30T01:37:52.323Z,14.70
2018-04-30T01:40:19.736Z,14.70
2018-04-30T01:42:47.163Z,14.80
2018-04-30T01:45:14.554Z,14.70
2018-04-30T01:47:41.970Z,14.70
2018-04-30T01:50:10.142Z,14.70
2018-04-30T01:52:37.550Z,14.70
2018-04-30T01:55:04.950Z,14.70
2018-04-30T01:57:32.356Z,14.70
2018-04-30T01:59:59.764Z,14.70
2018-04-30T02:02:27.167Z,14.80
2018-04-30T02:04:54.567Z,14.80
2018-04-30T02:07:22.747Z,14.70
2018-04-30T02:09:50.152Z,14.70
2018-04-30T02:12:17.557Z,14.80
2018-04-30T02:14:44.967Z,14.80
2018-04-30T02:17:12.368Z,14.80
2018-04-30T02:19:39.769Z,14.80
2018-04-30T02:22:07.171Z,14.70
2018-04-30T02:24:35.340Z,14.40
2018-04-30T02:27:03.508Z,14.30
2018-04-30T02:29:30.910Z,14.30
2018-04-30T02:31:58.310Z,14.20
2018-04-30T02:34:25.733Z,14.10
2018-04-30T02:36:53.151Z,14.00
2018-04-30T02:39:21.298Z,13.90
2018-04-30T02:41:48.704Z,13.90
2018-04-30T02:44:16.102Z,13.80
2018-04-30T02:46:44.271Z,13.80
2018-04-30T02:49:11.685Z,13.70
2018-04-30T02:51:39.103Z,13.70
2018-04-30T02:54:06.507Z,13.70
2018-04-30T02:56:33.954Z,13.60
2018-04-30T02:59:01.364Z,13.50
2018-04-30T03:01:29.556Z,13.30
2018-04-30T03:03:56.960Z,13.30
2018-04-30T03:06:25.227Z,13.20
2018-04-30T03:08:53.382Z,13.20
2018-04-30T03:11:21.551Z,13.20
2018-04-30T03:13:49.736Z,13.20
2018-04-30T03:16:17.199Z,13.20
2018-04-30T03:18:44.582Z,13.20
2018-04-30T03:21:12.759Z,13.10
2018-04-30T03:23:40.173Z,13.10
2018-04-30T03:26:08.338Z,13.10
2018-04-30T03:28:36.510Z,13.10
2018-04-30T03:31:03.911Z,13.10
2018-04-30T03:33:31.356Z,13.10
2018-04-30T03:35:58.761Z,13.00
2018-04-30T03:38:26.175Z,12.80
2018-04-30T03:40:53.602Z,12.70
2018-04-30T03:43:20.991Z,12.60
2018-04-30T03:45:48.390Z,12.40
2018-04-30T03:48:15.792Z,12.30
2018-04-30T03:50:43.202Z,12.10
2018-04-30T03:53:10.616Z,11.90
2018-04-30T03:55:38.018Z,11.80
2018-04-30T03:58:05.414Z,11.70
2018-04-30T04:00:44.891Z,11.50
2018-04-30T04:03:24.275Z,11.50
2018-04-30T04:06:15.287Z,11.30
2018-04-30T04:08:42.705Z,11.20
2018-04-30T04:11:10.102Z,11.10
2018-04-30T04:13:38.275Z,11.10
2018-04-30T04:16:05.674Z,11.00
2018-04-30T04:18:33.087Z,11.10
2018-04-30T04:21:00.514Z,11.10
2018-04-30T04:23:27.919Z,11.10
2018-04-30T04:25:56.082Z,11.10
2018-04-30T04:28:24.251Z,11.20
2018-04-30T04:30:52.447Z,11.20
2018-04-30T04:33:19.850Z,11.20
2018-04-30T04:35:48.029Z,11.10
2018-04-30T04:38:15.443Z,11.10
2018-04-30T04:40:43.611Z,11.00
2018-04-30T04:43:11.774Z,11.00
2018-04-30T04:45:39.179Z,11.00
2018-04-30T04:48:06.584Z,11.00
2018-04-30T04:50:33.983Z,11.10
2018-04-30T04:53:02.168Z,11.10
2018-04-30T04:55:29.567Z,11.10
2018-04-30T04:57:56.968Z,11.00
2018-04-30T05:00:24.402Z,11.00
2018-04-30T05:02:51.811Z,11.00
2018-04-30T05:05:19.983Z,11.10
2018-04-30T05:07:47.390Z,11.10
2018-04-30T05:10:14.847Z,11.10
2018-04-30T05:12:43.023Z,11.30
2018-04-30T05:15:10.431Z,11.30
2018-04-30T05:17:37.839Z,11.40
2018-04-30T05:20:05.243Z,11.50
2018-04-30T05:22:32.644Z,11.50
2018-04-30T05:25:00.051Z,11.40
2018-04-30T05:27:27.459Z,11.40
2018-04-30T05:29:55.625Z,11.40
2018-04-30T05:32:23.027Z,11.40
2018-04-30T05:34:50.430Z,11.40
2018-04-30T05:37:17.840Z,11.40
2018-04-30T05:39:45.247Z,11.40
2018-04-30T05:42:12.655Z,11.50
2018-04-30T05:44:40.055Z,11.50
2018-04-30T05:47:08.231Z,11.50
2018-04-30T05:49:35.636Z,11.50
2018-04-30T05:52:03.068Z,11.50
2018-04-30T05:54:30.462Z,11.60
2018-04-30T05:56:57.879Z,11.70
2018-04-30T05:59:26.057Z,11.80
2018-04-30T06:01:53.459Z,11.80
2018-04-30T06:04:20.951Z,11.90
2018-04-30T06:06:48.363Z,11.80
2018-04-30T06:09:16.518Z,11.90
2018-04-30T06:11:44.699Z,11.80
2018-04-30T06:14:12.155Z,11.80
2018-04-30T06:16:39.607Z,11.90
2018-04-30T06:19:07.007Z,11.90
2018-04-30T06:21:35.178Z,12.00
2018-04-30T06:24:02.578Z,12.00
2018-04-30T06:26:30.760Z,12.10
2018-04-30T06:28:58.922Z,12.20
2018-04-30T06:31:27.112Z,12.20
2018-04-30T06:33:54.527Z,12.10
2018-04-30T06:36:22.686Z,12.20
2018-04-30T06:38:50.854Z,12.20
2018-04-30T06:41:18.260Z,12.10
2018-04-30T06:43:45.668Z,12.20
2018-04-30T06:46:13.071Z,12.30
2018-04-30T06:48:40.493Z,12.40
2018-04-30T06:51:07.888Z,12.50
2018-04-30T06:53:35.390Z,12.60
2018-04-30T06:56:02.702Z,12.60
2018-04-30T06:58:30.112Z,12.60
2018-04-30T07:00:57.082Z,12.60
2018-04-30T07:03:25.255Z,12.70
2018-04-30T07:05:53.426Z,12.70
2018-04-30T07:08:20.823Z,12.70
2018-04-30T07:10:48.224Z,12.70
2018-04-30T07:13:15.642Z,12.80
2018-04-30T07:15:43.819Z,12.80
2018-04-30T07:18:11.227Z,12.80
2018-04-30T07:20:38.697Z,12.90
2018-04-30T07:23:05.593Z,13.00
2018-04-30T07:25:32.547Z,13.10
2018-04-30T07:27:59.959Z,13.10
2018-04-30T07:30:27.364Z,13.10
2018-04-30T07:32:54.771Z,13.10
2018-04-30T07:35:22.937Z,13.50
2018-04-30T07:37:50.334Z,13.50
2018-04-30T07:40:17.735Z,13.60
2018-04-30T07:42:45.205Z,13.70
2018-04-30T07:45:13.302Z,13.70
2018-04-30T07:47:41.478Z,13.90
2018-04-30T07:50:08.887Z,13.90
2018-04-30T07:52:36.296Z,13.90
2018-04-30T07:55:03.694Z,14.00
2018-04-30T07:57:31.094Z,14.10
2018-04-30T07:59:58.495Z,14.10
2018-04-30T08:02:25.914Z,14.30
2018-04-30T08:04:53.332Z,14.30
2018-04-30T08:07:20.744Z,14.40
2018-04-30T08:09:48.147Z,14.30
2018-04-30T08:12:15.559Z,14.40
2018-04-30T08:14:43.780Z,14.60
2018-04-30T08:17:11.158Z,14.60
2018-04-30T08:19:39.323Z,14.60
2018-04-30T08:22:07.500Z,14.60
2018-04-30T08:24:34.908Z,14.60
2018-04-30T08:27:01.908Z,14.70
2018-04-30T08:29:29.274Z,14.80
2018-04-30T08:31:56.683Z,14.80
2018-04-30T08:34:24.094Z,15.00
2018-04-30T08:36:51.490Z,15.00
2018-04-30T08:39:18.923Z,15.00
2018-04-30T08:41:45.870Z,15.20
2018-04-30T08:44:12.826Z,15.40
2018-04-30T08:46:40.549Z,15.30
2018-04-30T08:49:07.497Z,15.40
2018-04-30T08:51:35.238Z,15.40
2018-04-30T08:54:02.207Z,15.30
2018-04-30T08:56:29.166Z,15.30
2018-04-30T08:58:56.573Z,15.30
2018-04-30T09:01:23.533Z,15.40
2018-04-30T09:03:50.506Z,15.30
2018-04-30T09:06:17.899Z,15.50
2018-04-30T09:08:44.863Z,15.50
2018-04-30T09:11:12.458Z,15.60
2018-04-30T09:13:39.867Z,15.70
2018-04-30T09:16:07.602Z,15.70
2018-04-30T09:18:35.007Z,15.70
2018-04-30T09:21:02.411Z,15.70
2018-04-30T09:23:29.822Z,15.70
2018-04-30T09:25:56.770Z,15.70
2018-04-30T09:28:24.494Z,16.00
2018-04-30T09:30:51.895Z,16.00
2018-04-30T09:33:19.294Z,16.20
2018-04-30T09:35:47.468Z,16.40
2018-04-30T09:38:15.190Z,16.30
2018-04-30T09:40:42.162Z,16.30
2018-04-30T09:43:09.563Z,16.40
2018-04-30T09:45:36.967Z,16.50
2018-04-30T09:48:03.933Z,16.50
2018-04-30T09:50:30.890Z,16.60
2018-04-30T09:52:57.853Z,16.60
2018-04-30T09:55:25.246Z,16.80
2018-04-30T09:57:53.438Z,16.90
2018-04-30T10:00:23.650Z,16.80
2018-04-30T10:02:50.595Z,16.80
2018-04-30T10:05:17.557Z,16.80
2018-04-30T10:07:44.518Z,16.70
2018-04-30T10:10:11.490Z,16.80
2018-04-30T10:12:38.442Z,17.00
2018-04-30T10:15:05.415Z,17.20
2018-04-30T10:17:32.378Z,17.30
2018-04-30T10:19:59.349Z,17.40
2018-04-30T10:22:27.080Z,17.50
2018-04-30T10:24:54.030Z,17.50
2018-04-30T10:27:22.194Z,17.40
2018-04-30T10:29:50.367Z,17.40
2018-04-30T10:32:17.774Z,17.40
2018-04-30T10:34:44.729Z,17.40
2018-04-30T10:37:12.458Z,17.70
2018-04-30T10:39:39.424Z,17.70
2018-04-30T10:42:06.378Z,17.70
2018-04-30T10:44:33.348Z,17.90
2018-04-30T10:47:01.528Z,18.50
2018-04-30T10:49:29.253Z,18.70
2018-04-30T10:51:56.659Z,18.70
2018-04-30T10:54:24.066Z,18.80
2018-04-30T10:56:51.462Z,18.70
2018-04-30T10:59:18.446Z,18.90
2018-04-30T11:01:45.407Z,19.10
2018-04-30T11:04:12.391Z,19.40
2018-04-30T11:06:40.122Z,20.00
2018-04-30T11:09:07.858Z,19.50
2018-04-30T11:11:34.834Z,19.50
2018-04-30T11:14:01.866Z,19.10
2018-04-30T11:16:29.200Z,19.00
2018-04-30T11:18:56.926Z,19.30
2018-04-30T11:21:24.646Z,19.60
2018-04-30T11:23:51.615Z,19.60
2018-04-30T11:26:20.225Z,19.60
2018-04-30T11:28:47.207Z,19.60
2018-04-30T11:31:14.935Z,19.40
2018-04-30T11:33:41.895Z,19.40
2018-04-30T11:36:09.622Z,19.70
2018-04-30T11:38:37.022Z,19.60
2018-04-30T11:41:04.427Z,19.70
2018-04-30T11:43:31.398Z,19.70
2018-04-30T11:45:58.794Z,20.00
2018-04-30T11:48:26.519Z,20.50
2018-04-30T11:50:53.478Z,20.50
2018-04-30T11:53:21.215Z,20.30
2018-04-30T11:55:48.167Z,20.30
2018-04-30T11:58:15.121Z,20.00
2018-04-30T12:00:42.519Z,19.70
2018-04-30T12:03:10.233Z,20.60
2018-04-30T12:05:37.203Z,20.60
2018-04-30T12:08:04.922Z,20.60
2018-04-30T12:10:32.422Z,20.60
2018-04-30T12:12:59.835Z,21.20
2018-04-30T12:15:28.017Z,22.00
2018-04-30T12:17:54.975Z,21.90
2018-04-30T12:20:21.926Z,21.60
2018-04-30T12:22:50.402Z,21.20
2018-04-30T12:25:17.350Z,21.20
2018-04-30T12:27:45.514Z,20.40
2018-04-30T12:30:13.682Z,20.80
2018-04-30T12:32:40.638Z,20.80
2018-04-30T12:35:07.605Z,21.20
2018-04-30T12:37:34.564Z,21.40
2018-04-30T12:40:02.282Z,21.70
2018-04-30T12:42:29.245Z,21.60
2018-04-30T12:44:56.211Z,21.70
2018-04-30T12:47:23.170Z,22.00
2018-04-30T12:49:50.166Z,22.30
2018-04-30T12:52:18.303Z,21.50
2018-04-30T12:54:45.707Z,21.40
2018-04-30T12:57:12.666Z,21.40
2018-04-30T12:59:40.405Z,21.40
2018-04-30T13:02:08.149Z,22.10
2018-04-30T13:04:35.650Z,22.00
2018-04-30T13:07:02.580Z,22.40
2018-04-30T13:09:29.986Z,22.40
2018-04-30T13:11:56.958Z,22.50
2018-04-30T13:14:23.925Z,22.20
2018-04-30T13:16:50.875Z,21.40
2018-04-30T13:19:17.841Z,21.30
2018-04-30T13:21:44.798Z,21.30
2018-04-30T13:24:11.758Z,21.60
2018-04-30T13:26:39.501Z,20.50
2018-04-30T13:29:07.234Z,20.90
2018-04-30T13:31:34.207Z,20.90
2018-04-30T13:34:01.162Z,21.30
2018-04-30T13:36:28.122Z,20.90
2018-04-30T13:38:55.078Z,20.60
2018-04-30T13:41:22.053Z,21.00
2018-04-30T13:43:49.013Z,20.80
2018-04-30T13:46:16.435Z,20.70
2018-04-30T13:48:43.406Z,20.90
2018-04-30T13:51:12.266Z,21.80
2018-04-30T13:53:39.696Z,21.70
2018-04-30T13:56:06.642Z,21.50
2018-04-30T13:58:33.600Z,20.90
2018-04-30T14:01:01.613Z,21.10
2018-04-30T14:03:28.582Z,22.00
2018-04-30T14:05:55.538Z,21.90
2018-04-30T14:08:22.512Z,21.70
2018-04-30T14:10:49.482Z,21.40
2018-04-30T14:13:16.446Z,22.00
2018-04-30T14:15:43.858Z,21.80
2018-04-30T14:18:10.814Z,21.10
2018-04-30T14:20:37.789Z,20.40
2018-04-30T14:23:05.522Z,20.90
2018-04-30T14:25:32.932Z,20.90
2018-04-30T14:27:59.954Z,21.00
2018-04-30T14:30:27.354Z,20.60
2018-04-30T14:32:55.078Z,20.20
2018-04-30T14:35:22.042Z,20.20
2018-04-30T14:37:49.027Z,19.90
2018-04-30T14:40:15.993Z,20.70
2018-04-30T14:42:43.722Z,20.60
2018-04-30T14:45:10.700Z,20.60
2018-04-30T14:47:39.234Z,20.30
2018-04-30T14:50:06.950Z,20.20
2018-04-30T14:52:33.919Z,20.20
2018-04-30T14:55:01.650Z,20.40
2018-04-30T14:57:28.622Z,20.40
2018-04-30T14:59:55.580Z,20.70
2018-04-30T15:02:22.541Z,20.70
2018-04-30T15:04:49.506Z,20.70
2018-04-30T15:07:16.460Z,20.80
2018-04-30T15:09:43.426Z,20.90
2018-04-30T15:12:10.403Z,20.40
2018-04-30T15:14:37.345Z,20.30
2018-04-30T15:17:04.307Z,20.60
2018-04-30T15:19:31.324Z,20.50
2018-04-30T15:21:58.982Z,19.90
2018-04-30T15:24:25.939Z,20.00
2018-04-30T15:26:52.906Z,19.90
2018-04-30T15:29:19.858Z,19.80
2018-04-30T15:31:46.820Z,19.90
2018-04-30T15:34:13.878Z,20.20
2018-04-30T15:36:41.606Z,19.90
2018-04-30T15:39:08.574Z,19.90
2018-04-30T15:41:35.987Z,20.30
2018-04-30T15:44:04.163Z,20.40
2018-04-30T15:46:31.119Z,20.40
2018-04-30T15:48:58.073Z,19.80
2018-04-30T15:51:25.055Z,19.70
2018-04-30T15:53:52.043Z,19.90
2018-04-30T15:56:18.990Z,20.10
2018-04-30T15:58:46.754Z,20.00
2018-04-30T16:01:14.512Z,20.10
2018-04-30T16:03:41.442Z,20.10
2018-04-30T16:06:08.402Z,20.00
2018-04-30T16:08:35.362Z,19.90
2018-04-30T16:11:02.331Z,19.70
2018-04-30T16:13:30.067Z,19.60
2018-04-30T16:15:57.795Z,19.90
2018-04-30T16:18:24.770Z,19.80
2018-04-30T16:20:51.731Z,20.00
2018-04-30T16:23:18.705Z,20.20
2018-04-30T16:25:46.446Z,19.80
2018-04-30T16:28:13.851Z,19.80
2018-04-30T16:30:41.247Z,19.40
2018-04-30T16:33:08.978Z,19.00
2018-04-30T16:35:35.938Z,19.00
2018-04-30T16:38:02.905Z,18.80
2018-04-30T16:40:29.863Z,18.50
2018-04-30T16:42:56.818Z,18.40
2018-04-30T16:45:24.556Z,18.40
2018-04-30T16:47:52.349Z,18.30
2018-04-30T16:50:19.299Z,18.30
2018-04-30T16:52:46.265Z,18.30
2018-04-30T16:55:13.998Z,18.40
2018-04-30T16:57:41.420Z,18.40
2018-04-30T17:00:09.235Z,18.30
2018-04-30T17:02:36.189Z,18.10
2018-04-30T17:05:03.160Z,17.80
2018-04-30T17:07:30.130Z,17.70
2018-04-30T17:09:57.087Z,17.60
2018-04-30T17:12:24.043Z,17.50
2018-04-30T17:14:51.015Z,17.50
2018-04-30T17:17:17.974Z,17.30
2018-04-30T17:19:45.382Z,17.20
2018-04-30T17:22:12.362Z,17.20
2018-04-30T17:24:39.322Z,17.20
2018-04-30T17:27:07.046Z,17.70
2018-04-30T17:29:34.089Z,17.70
2018-04-30T17:32:01.495Z,17.80
2018-04-30T17:34:28.458Z,17.80
2018-04-30T17:36:55.420Z,17.70
2018-04-30T17:39:23.137Z,17.00
2018-04-30T17:41:50.099Z,17.00
2018-04-30T17:44:18.274Z,16.20
2018-04-30T17:46:45.679Z,16.10
2018-04-30T17:49:13.887Z,15.90
2018-04-30T17:51:41.291Z,15.90
2018-04-30T17:54:09.532Z,15.80
2018-04-30T17:56:36.862Z,15.70
2018-04-30T17:59:04.268Z,15.60
2018-04-30T18:01:32.010Z,15.50
2018-04-30T18:03:58.990Z,15.50
2018-04-30T18:06:25.962Z,15.50
2018-04-30T18:08:52.914Z,15.40
2018-04-30T18:11:19.870Z,15.30
2018-04-30T18:13:47.282Z,15.10
2018-04-30T18:16:14.678Z,15.10
2018-04-30T18:18:42.875Z,15.10
2018-04-30T18:21:10.276Z,15.10
2018-04-30T18:23:37.994Z,15.10
2018-04-30T18:26:04.963Z,15.00
2018-04-30T18:28:32.695Z,15.00
2018-04-30T18:30:59.650Z,15.00
2018-04-30T18:33:26.617Z,15.10
2018-04-30T18:35:53.593Z,15.10
2018-04-30T18:38:20.562Z,15.00
2018-04-30T18:40:47.536Z,14.90
2018-04-30T18:43:14.498Z,14.80
2018-04-30T18:45:42.217Z,14.60
2018-04-30T18:48:09.198Z,14.60
2018-04-30T18:50:36.159Z,14.60
2018-04-30T18:53:03.122Z,14.50
2018-04-30T18:55:30.115Z,14.50
2018-04-30T18:57:57.087Z,14.50
2018-04-30T19:00:24.051Z,14.50
2018-04-30T19:02:51.451Z,14.50
2018-04-30T19:05:18.878Z,14.40
2018-04-30T19:07:45.834Z,14.40
2018-04-30T19:10:13.554Z,14.40
2018-04-30T19:12:40.531Z,14.40
2018-04-30T19:15:07.500Z,14.40
2018-04-30T19:17:34.457Z,14.40
2018-04-30T19:20:01.425Z,14.40
2018-04-30T19:22:28.373Z,14.30
2018-04-30T19:24:55.799Z,14.20
2018-04-30T19:27:22.746Z,14.10
2018-04-30T19:29:50.171Z,14.00
2018-04-30T19:32:17.615Z,14.00
2018-04-30T19:34:45.759Z,13.80
2018-04-30T19:37:13.544Z,13.80
2018-04-30T19:39:41.234Z,13.80
2018-04-30T19:42:08.954Z,13.80
2018-04-30T19:44:35.931Z,13.70
2018-04-30T19:47:03.653Z,13.70
2018-04-30T19:49:30.614Z,13.70
2018-04-30T19:51:58.342Z,13.60
2018-04-30T19:54:26.805Z,13.60
2018-04-30T19:56:53.787Z,13.60
2018-04-30T19:59:20.761Z,13.60
2018-04-30T20:01:47.738Z,13.50
2018-04-30T20:04:14.714Z,13.60
2018-04-30T20:06:41.669Z,13.50
2018-04-30T20:09:09.390Z,13.40
2018-04-30T20:11:36.350Z,13.40
2018-04-30T20:14:04.098Z,13.30
2018-04-30T20:16:31.834Z,13.20
2018-04-30T20:18:58.803Z,13.20
2018-04-30T20:21:25.750Z,13.10
2018-04-30T20:23:52.714Z,13.00
2018-04-30T20:26:19.694Z,13.00
2018-04-30T20:28:46.659Z,13.00
2018-04-30T20:31:13.637Z,13.00
2018-04-30T20:33:41.358Z,13.00
2018-04-30T20:36:09.082Z,13.10
2018-04-30T20:38:36.042Z,13.00
2018-04-30T20:41:03.007Z,13.10
2018-04-30T20:43:29.966Z,13.10
2018-04-30T20:45:57.006Z,13.10
2018-04-30T20:48:23.988Z,13.10
2018-04-30T20:50:51.718Z,13.00
2018-04-30T20:53:19.450Z,13.00
2018-04-30T20:55:46.433Z,13.00
2018-04-30T20:58:14.142Z,13.00
2018-04-30T21:00:41.102Z,13.00
2018-04-30T21:03:08.823Z,13.00
2018-04-30T21:05:35.782Z,13.00
2018-04-30T21:08:02.747Z,13.10
2018-04-30T21:10:29.720Z,13.00
2018-04-30T21:12:56.687Z,13.00
2018-04-30T21:15:23.672Z,13.00
2018-04-30T21:17:50.626Z,13.10
2018-04-30T21:20:18.346Z,13.10
2018-04-30T21:22:46.080Z,13.10
2018-04-30T21:25:13.040Z,13.10
2018-04-30T21:27:40.006Z,13.20
2018-04-30T21:30:06.971Z,13.20
2018-04-30T21:32:33.941Z,13.10
2018-04-30T21:35:01.658Z,13.10
2018-04-30T21:37:28.630Z,13.10
2018-04-30T21:39:56.370Z,13.10
2018-04-30T21:42:24.108Z,13.10
2018-04-30T21:44:51.087Z,13.10
2018-04-30T21:47:18.042Z,13.20
2018-04-30T21:49:45.019Z,13.10
2018-04-30T21:52:12.742Z,13.00
2018-04-30T21:54:39.749Z,13.00
2018-04-30T21:57:06.706Z,12.90
2018-04-30T21:59:33.665Z,12.90
2018-04-30T22:02:00.638Z,13.00
2018-04-30T22:04:27.670Z,13.00
2018-04-30T22:06:54.628Z,13.00
2018-04-30T22:09:21.634Z,13.00
2018-04-30T22:11:48.582Z,13.00
2018-04-30T22:14:15.527Z,13.00
2018-04-30T22:16:43.262Z,13.00
2018-04-30T22:19:10.226Z,13.00
2018-04-30T22:21:37.195Z,13.00
2018-04-30T22:24:04.167Z,13.00
2018-04-30T22:26:31.129Z,13.10
2018-04-30T22:28:58.103Z,13.00
2018-04-30T22:31:25.068Z,13.00
2018-04-30T22:33:52.793Z,13.00
2018-04-30T22:36:19.763Z,13.00
2018-04-30T22:38:46.722Z,13.00
2018-04-30T22:41:13.678Z,13.00
2018-04-30T22:43:40.641Z,12.90
2018-04-30T22:46:08.372Z,12.90
2018-04-30T22:48:35.351Z,12.90
2018-04-30T22:51:02.290Z,12.90
2018-04-30T22:53:29.257Z,12.90
2018-04-30T22:55:56.231Z,12.90
2018-04-30T22:58:23.209Z,12.80
2018-04-30T23:00:50.178Z,12.70
2018-04-30T23:03:17.897Z,12.70
2018-04-30T23:05:44.854Z,12.70
2018-04-30T23:08:12.602Z,12.70
2018-04-30T23:10:39.578Z,12.60
2018-04-30T23:13:06.619Z,12.60
2018-04-30T23:15:33.574Z,12.60
2018-04-30T23:18:00.581Z,12.60
2018-04-30T23:20:27.551Z,12.60
2018-04-30T23:22:54.582Z,12.60
2018-04-30T23:25:21.499Z,12.50
2018-04-30T23:27:48.491Z,12.40
2018-04-30T23:30:15.433Z,12.30
2018-04-30T23:32:42.398Z,12.30
2018-04-30T23:35:09.813Z,12.30
2018-04-30T23:37:36.770Z,12.40
2018-04-30T23:40:04.494Z,12.30
2018-04-30T23:42:31.498Z,12.30
2018-04-30T23:44:58.434Z,12.30
2018-04-30T23:47:25.402Z,12.20
2018-04-30T23:49:52.365Z,12.20
2018-04-30T23:52:19.334Z,12.10
2018-04-30T23:54:46.291Z,12.10
2018-04-30T23:57:13.250Z,12.00
2018-04-30T23:59:40.974Z,12.10
